Andover, Virginia
Current Conditions -  °F | °C
As of 1:35 PM on Thursday 27 Nov 2014 (Local Time) from KLNP Reporting Station
Haze Haze  
Wind Chill: 21°   Ceiling: 500
Heat Index: 30°   Visibility: 5mi
Dew Point: 30°   Wind: 10mph
Humidity: 100%   Direction: 300°WNW
Pressure: 30.16"   Gusts: NA
Location:  36.92°N, 82.8°W
Report Text: KLNP 271835Z AUTO 30009KT 5SM BR OVC005 M01/M01 A3016 RMK AO2
Loading
Personal Weather Stations






























Interactive Weather Map New forecast layout! Learn more

10-Day Weather Forecast

Advertisements
Track Severe Weather on mobile